Time;durP1;ratioP1;P1;durP2;ratioP2;P2;SDS_P1;SDS_P2;PMS_P1;PMS_P2;Temp;Humidity;BMP_temperature;BMP_pressure;BME280_temperature;BME280_humidity;BME280_pressure;Samples;Min_cycle;Max_cycle;Signal;HPM_P1;HPM_P2
2024/01/26 00:00:51;;;;;;;26.90;6.15;;;;;;;4.41;100.00;102110.31;5003454;28;20173;-43
2024/01/26 00:03:16;;;;;;;28.83;5.60;;;;;;;4.42;100.00;102094.41;5001101;28;20591;-43
2024/01/26 00:05:41;;;;;;;34.00;6.13;;;;;;;4.44;100.00;102099.72;4993379;28;20196;-43
2024/01/26 00:08:07;;;;;;;27.33;7.05;;;;;;;4.46;100.00;102103.25;4998267;28;20197;-43
2024/01/26 00:10:33;;;;;;;28.70;5.63;;;;;;;4.47;100.00;102087.38;5003507;28;20668;-43
2024/01/26 00:12:58;;;;;;;32.95;6.70;;;;;;;4.47;100.00;102090.03;5010912;28;20623;-43
2024/01/26 00:15:24;;;;;;;28.13;5.95;;;;;;;4.50;100.00;102079.44;4999550;28;20228;-43
2024/01/26 00:17:49;;;;;;;21.17;5.93;;;;;;;4.51;100.00;102072.38;5006699;28;20296;-43
2024/01/26 00:20:14;;;;;;;30.15;6.68;;;;;;;4.51;100.00;102081.22;5000882;28;20183;-43
2024/01/26 00:22:40;;;;;;;29.95;5.97;;;;;;;4.54;100.00;102061.75;5000157;28;20211;-44
2024/01/26 00:25:06;;;;;;;31.67;5.45;;;;;;;4.53;100.00;102063.53;5002885;28;20185;-42
2024/01/26 00:27:31;;;;;;;25.90;5.55;;;;;;;4.54;100.00;102067.94;5009026;28;20191;-44
2024/01/26 00:29:57;;;;;;;23.30;5.75;;;;;;;4.57;100.00;102063.53;5002639;28;20639;-42
2024/01/26 00:32:22;;;;;;;37.15;6.45;;;;;;;4.58;100.00;102065.34;5003015;28;20740;-42
2024/01/26 00:34:48;;;;;;;26.40;6.13;;;;;;;4.57;100.00;102069.75;5004404;28;20173;-44
2024/01/26 00:37:13;;;;;;;32.55;6.35;;;;;;;4.59;100.00;102078.63;4984193;28;20204;-43
2024/01/26 00:39:39;;;;;;;22.10;6.18;;;;;;;4.60;100.00;102080.38;4991242;28;20283;-42
2024/01/26 00:42:04;;;;;;;27.67;6.18;;;;;;;4.60;100.00;102074.19;5002358;28;20211;-44
2024/01/26 00:44:30;;;;;;;22.85;6.53;;;;;;;4.61;100.00;102070.66;5001439;28;20239;-44
2024/01/26 00:46:55;;;;;;;24.83;6.15;;;;;;;4.61;100.00;102062.69;5003668;28;20720;-44
2024/01/26 00:49:21;;;;;;;26.02;5.80;;;;;;;4.61;100.00;102060.91;4983160;28;20648;-44
2024/01/26 00:51:47;;;;;;;25.27;6.40;;;;;;;4.60;100.00;102063.56;5000677;28;20263;-42
2024/01/26 00:54:12;;;;;;;24.10;5.70;;;;;;;4.61;100.00;102044.09;5003894;28;20200;-42
2024/01/26 00:56:38;;;;;;;34.63;7.15;;;;;;;4.62;100.00;102040.59;4989297;28;20200;-42
2024/01/26 00:59:04;;;;;;;28.13;7.63;;;;;;;4.61;100.00;102047.63;5001897;28;20196;-44
2024/01/26 01:01:29;;;;;;;22.08;6.38;;;;;;;4.64;100.00;102038.84;5005312;28;20197;-44
2024/01/26 01:03:56;;;;;;;26.67;6.72;;;;;;;4.65;100.00;102038.81;4989151;28;20264;-44
2024/01/26 01:06:21;;;;;;;31.73;6.20;;;;;;;4.67;100.00;102033.53;5004705;28;20422;-43
2024/01/26 01:08:47;;;;;;;21.00;5.93;;;;;;;4.65;100.00;102033.50;5002493;28;20184;-42
2024/01/26 01:11:13;;;;;;;27.60;6.25;;;;;;;4.67;100.00;102026.44;4991357;28;20172;-43
2024/01/26 01:13:38;;;;;;;30.42;6.45;;;;;;;4.70;100.00;102022.91;5002718;28;20188;-43
2024/01/26 01:16:04;;;;;;;28.13;7.75;;;;;;;4.71;100.00;102022.94;5001900;28;20231;-43
2024/01/26 01:18:30;;;;;;;23.05;7.00;;;;;;;4.72;100.00;102016.75;4996524;28;20213;-43
2024/01/26 01:20:56;;;;;;;30.63;6.45;;;;;;;4.72;100.00;102002.56;5001066;28;20187;-43
2024/01/26 01:23:21;;;;;;;32.63;7.18;;;;;;;4.74;100.00;102004.38;5001761;28;20192;-43
2024/01/26 01:25:47;;;;;;;32.33;7.68;;;;;;;4.75;100.00;101994.63;4988751;28;20217;-43
2024/01/26 01:28:12;;;;;;;42.67;8.32;;;;;;;4.73;100.00;101988.44;4986318;28;20575;-42
2024/01/26 01:30:38;;;;;;;38.22;7.03;;;;;;;4.75;100.00;101997.28;4999314;28;20217;-42
2024/01/26 01:33:04;;;;;;;31.35;7.22;;;;;;;4.74;100.00;101985.78;5002186;28;20211;-44
2024/01/26 01:35:30;;;;;;;31.33;7.72;;;;;;;4.75;100.00;101974.28;4985488;28;20247;-43
2024/01/26 01:37:56;;;;;;;27.00;8.07;;;;;;;4.74;100.00;101972.53;5001145;28;20228;-43
2024/01/26 01:40:22;;;;;;;33.67;7.57;;;;;;;4.71;100.00;101968.94;4985894;28;20398;-42
2024/01/26 01:42:47;;;;;;;25.02;7.13;;;;;;;4.70;100.00;101967.16;5004989;28;20205;-42
2024/01/26 01:45:14;;;;;;;34.58;7.53;;;;;;;4.67;100.00;101951.22;5002782;28;20268;-44
2024/01/26 01:47:41;;;;;;;36.40;7.80;;;;;;;4.67;100.00;101964.50;5005627;28;20235;-44
2024/01/26 01:50:10;;;;;;;28.63;7.18;;;;;;;4.62;100.00;101969.81;5004448;28;20398;-46
2024/01/26 01:52:40;;;;;;;33.97;8.05;;;;;;;4.62;100.00;101958.31;4999853;28;20199;-44
2024/01/26 01:55:08;;;;;;;28.40;7.70;;;;;;;4.62;100.00;101945.91;5003828;28;20192;-42
2024/01/26 01:57:41;;;;;;;30.52;8.02;;;;;;;4.65;100.00;101945.91;5004329;28;20197;-44
2024/01/26 02:00:15;;;;;;;35.05;8.15;;;;;;;4.65;100.00;101943.25;4981979;28;20204;-46
2024/01/26 02:02:45;;;;;;;30.45;8.60;;;;;;;4.65;100.00;101931.75;5000304;28;20188;-44
2024/01/26 02:05:12;;;;;;;40.90;8.82;;;;;;;4.67;100.00;101933.53;5002096;28;20556;-43
2024/01/26 02:07:37;;;;;;;39.97;8.25;;;;;;;4.70;100.00;101925.59;4998772;28;20178;-43
2024/01/26 02:10:04;;;;;;;35.85;8.93;;;;;;;4.72;100.00;101931.81;4990925;28;20189;-45
2024/01/26 02:12:29;;;;;;;33.45;9.35;;;;;;;4.75;100.00;101928.28;5002092;28;20590;-44
2024/01/26 02:14:55;;;;;;;32.28;9.30;;;;;;;4.75;100.00;101934.47;5003405;28;20262;-44
2024/01/26 02:17:20;;;;;;;35.30;9.05;;;;;;;4.78;100.00;101943.31;4998917;28;20216;-44
2024/01/26 02:19:46;;;;;;;36.78;8.90;;;;;;;4.79;100.00;101951.28;4998330;28;20577;-44
2024/01/26 02:22:11;;;;;;;30.77;9.27;;;;;;;4.80;100.00;101952.19;4999518;28;20181;-43
2024/01/26 02:24:37;;;;;;;38.70;9.30;;;;;;;4.81;100.00;101936.25;4989029;28;20193;-42
2024/01/26 02:27:03;;;;;;;41.28;10.40;;;;;;;4.83;100.00;101936.25;4999712;28;20201;-42
2024/01/26 02:29:28;;;;;;;35.17;10.20;;;;;;;4.88;100.00;101931.84;5002827;28;20189;-44
2024/01/26 02:31:53;;;;;;;32.55;8.95;;;;;;;4.87;100.00;101930.06;5008110;28;20595;-42
2024/01/26 02:34:19;;;;;;;41.45;10.23;;;;;;;4.92;100.00;101921.25;4992715;28;20354;-43
2024/01/26 02:36:44;;;;;;;37.10;11.30;;;;;;;4.93;100.00;101930.09;5007799;28;20204;-43
2024/01/26 02:39:11;;;;;;;39.05;11.55;;;;;;;4.92;100.00;101917.72;4997100;28;20508;-42
2024/01/26 02:41:36;;;;;;;36.00;11.85;;;;;;;4.92;100.00;101921.25;5008436;28;20197;-42
2024/01/26 02:44:02;;;;;;;38.13;11.25;;;;;;;4.92;100.00;101926.56;4991080;28;20191;-41
2024/01/26 02:46:28;;;;;;;34.60;10.95;;;;;;;4.94;100.00;101907.94;5005434;28;20637;-41
2024/01/26 02:48:54;;;;;;;39.42;11.93;;;;;;;4.92;100.00;101907.97;5004154;28;20196;-42
2024/01/26 02:51:19;;;;;;;37.53;10.88;;;;;;;4.94;100.00;101898.22;5002874;28;20279;-43
2024/01/26 02:53:45;;;;;;;40.70;11.27;;;;;;;4.95;100.00;101897.34;5000269;28;20281;-42
2024/01/26 02:56:10;;;;;;;42.72;12.43;;;;;;;4.93;100.00;101896.44;5004156;28;20234;-42
2024/01/26 02:58:36;;;;;;;34.50;11.63;;;;;;;4.94;100.00;101870.75;5005187;28;20193;-43
2024/01/26 03:01:01;;;;;;;42.70;12.68;;;;;;;4.92;100.00;101862.81;5004300;28;20190;-42
2024/01/26 03:03:27;;;;;;;50.70;14.60;;;;;;;4.90;100.00;101856.63;5006370;28;20196;-43
2024/01/26 03:05:53;;;;;;;40.42;12.75;;;;;;;4.88;100.00;101853.06;5000957;28;20299;-44
2024/01/26 03:08:19;;;;;;;42.95;12.95;;;;;;;4.87;100.00;101851.28;4992188;28;20335;-43
2024/01/26 03:10:44;;;;;;;40.75;13.75;;;;;;;4.85;100.00;101842.44;5005818;28;20195;-44
2024/01/26 03:13:10;;;;;;;41.72;14.07;;;;;;;4.87;100.00;101829.16;5008444;28;20193;-43
2024/01/26 03:15:36;;;;;;;40.35;14.68;;;;;;;4.84;100.00;101845.09;5005877;28;20208;-41
2024/01/26 03:18:01;;;;;;;43.78;14.68;;;;;;;4.83;100.00;101843.31;5003547;28;20208;-43
2024/01/26 03:20:27;;;;;;;45.13;13.35;;;;;;;4.85;100.00;101833.59;5002739;28;20193;-44
2024/01/26 03:22:52;;;;;;;48.42;15.77;;;;;;;4.82;100.00;101844.22;4990723;28;20185;-44
2024/01/26 03:25:18;;;;;;;43.92;14.27;;;;;;;4.82;100.00;101826.50;5003908;28;20263;-44
2024/01/26 03:27:43;;;;;;;55.90;16.10;;;;;;;4.82;100.00;101821.19;5008618;28;20188;-43
2024/01/26 03:30:09;;;;;;;49.60;15.98;;;;;;;4.82;100.00;101821.19;5006721;28;20197;-41
2024/01/26 03:32:35;;;;;;;44.28;15.02;;;;;;;4.81;100.00;101821.19;5003127;28;20277;-42
2024/01/26 03:35:00;;;;;;;41.83;14.00;;;;;;;4.82;100.00;101813.22;4984502;28;20188;-43
2024/01/26 03:37:26;;;;;;;48.97;16.27;;;;;;;4.82;100.00;101807.03;5006177;28;20215;-42
2024/01/26 03:39:52;;;;;;;42.72;16.00;;;;;;;4.81;100.00;101805.25;5006798;28;20704;-43
2024/01/26 03:42:18;;;;;;;43.28;15.73;;;;;;;4.82;100.00;101799.94;5005910;28;20246;-42
2024/01/26 03:44:43;;;;;;;42.78;14.77;;;;;;;4.84;100.00;101803.50;4989457;28;20180;-42
2024/01/26 03:47:10;;;;;;;45.80;15.90;;;;;;;4.85;100.00;101799.06;5004841;28;20256;-42
2024/01/26 03:49:35;;;;;;;47.92;16.67;;;;;;;4.85;100.00;101786.66;5003232;28;20208;-42
2024/01/26 03:52:03;;;;;;;43.28;15.45;;;;;;;4.88;100.00;101786.69;5002725;28;20188;-43
2024/01/26 03:54:28;;;;;;;41.72;16.33;;;;;;;4.86;100.00;101783.16;5003007;28;20251;-42
2024/01/26 03:56:53;;;;;;;50.45;17.75;;;;;;;4.85;100.00;101781.34;4994116;28;20675;-41
2024/01/26 03:59:19;;;;;;;49.17;18.60;;;;;;;4.86;100.00;101776.97;5006735;28;20555;-44
2024/01/26 04:01:45;;;;;;;44.75;16.52;;;;;;;4.88;100.00;101770.75;5002634;28;20272;-42
2024/01/26 04:04:10;;;;;;;43.28;17.63;;;;;;;4.86;100.00;101769.00;4999835;28;20212;-42
2024/01/26 04:06:40;;;;;;;55.22;18.58;;;;;;;4.84;100.00;101776.94;5007466;28;20428;-43
2024/01/26 04:09:06;;;;;;;66.05;18.75;;;;;;;4.82;100.00;101767.22;4999765;28;20223;-43
2024/01/26 04:11:32;;;;;;;49.45;17.67;;;;;;;4.82;100.00;101768.09;4995044;28;20195;-42
2024/01/26 04:13:57;;;;;;;59.33;18.98;;;;;;;4.86;100.00;101758.38;4999652;28;20185;-42
2024/01/26 04:16:23;;;;;;;56.03;20.48;;;;;;;4.84;100.00;101766.31;5000455;28;20647;-43
2024/01/26 04:18:48;;;;;;;71.05;20.65;;;;;;;4.83;100.00;101756.59;4988487;28;20191;-43
2024/01/26 04:21:14;;;;;;;53.83;19.20;;;;;;;4.83;100.00;101753.94;5007177;28;20276;-43
2024/01/26 04:23:39;;;;;;;61.05;18.88;;;;;;;4.82;100.00;101757.47;5007184;28;20185;-40
2024/01/26 04:26:06;;;;;;;62.42;20.08;;;;;;;4.86;100.00;101764.56;4992316;28;20200;-41
2024/01/26 04:28:31;;;;;;;60.47;20.38;;;;;;;4.89;100.00;101753.91;5007778;28;20646;-44
2024/01/26 04:30:57;;;;;;;64.72;20.67;;;;;;;4.92;100.00;101755.72;5000439;28;20268;-42
2024/01/26 04:33:22;;;;;;;67.65;20.92;;;;;;;4.88;100.00;101765.44;5005816;28;20181;-42
2024/01/26 04:35:48;;;;;;;58.35;20.15;;;;;;;4.88;100.00;101761.91;5002538;28;20647;-42
2024/01/26 04:38:13;;;;;;;74.47;21.15;;;;;;;4.89;100.00;101751.28;5003065;28;20762;-43
2024/01/26 04:40:40;;;;;;;70.15;20.05;;;;;;;4.88;100.00;101745.97;5002037;28;20193;-42
2024/01/26 04:43:05;;;;;;;79.70;19.70;;;;;;;4.90;100.00;101738.91;5002925;28;20213;-43
2024/01/26 04:45:31;;;;;;;78.72;20.50;;;;;;;4.91;100.00;101735.34;5001704;28;20236;-42
2024/01/26 04:47:57;;;;;;;75.30;21.73;;;;;;;4.91;100.00;101745.97;4998547;28;20334;-42
2024/01/26 04:50:22;;;;;;;75.28;22.02;;;;;;;4.91;100.00;101738.00;5005992;28;20227;-43
2024/01/26 04:52:52;;;;;;;72.53;21.88;;;;;;;4.91;100.00;101732.69;5001845;28;20635;-43
2024/01/26 04:55:17;;;;;;;94.18;24.48;;;;;;;4.90;100.00;101721.19;4998873;28;20704;-43
2024/01/26 04:57:43;;;;;;;81.93;21.08;;;;;;;4.87;100.00;101710.56;5004501;28;20228;-42
2024/01/26 05:00:09;;;;;;;77.38;21.65;;;;;;;4.86;100.00;101690.22;5003487;28;20188;-43
2024/01/26 05:02:34;;;;;;;75.38;22.23;;;;;;;4.87;100.00;101673.38;5003897;28;20215;-42
2024/01/26 05:05:00;;;;;;;85.03;22.85;;;;;;;4.87;100.00;101665.41;5000639;28;20193;-43
2024/01/26 05:07:25;;;;;;;72.90;21.77;;;;;;;4.87;100.00;101656.56;5005198;28;20215;-43
2024/01/26 05:09:51;;;;;;;76.72;22.60;;;;;;;4.87;100.00;101648.59;5003024;28;20219;-41
2024/01/26 05:12:16;;;;;;;81.57;21.63;;;;;;;4.90;100.00;101641.53;5001831;28;20308;-44
2024/01/26 05:14:42;;;;;;;81.95;23.17;;;;;;;4.89;100.00;101637.09;5000115;28;20183;-43
2024/01/26 05:17:07;;;;;;;82.93;22.30;;;;;;;4.89;100.00;101642.41;4999615;28;20717;-44
2024/01/26 05:19:33;;;;;;;84.35;23.30;;;;;;;4.90;100.00;101624.72;5002068;28;20673;-43
2024/01/26 05:21:58;;;;;;;73.97;22.92;;;;;;;4.92;100.00;101620.28;5003384;28;20235;-44
2024/01/26 05:24:24;;;;;;;77.18;22.35;;;;;;;4.92;100.00;101609.69;5002496;28;20753;-43
2024/01/26 05:26:49;;;;;;;77.15;24.00;;;;;;;4.93;100.00;101614.97;5000349;28;20201;-42
2024/01/26 05:29:16;;;;;;;72.20;21.45;;;;;;;4.95;100.00;101615.84;5002577;28;20185;-42
2024/01/26 05:31:42;;;;;;;68.22;22.05;;;;;;;4.95;100.00;101605.22;4999113;28;20177;-42
2024/01/26 05:34:07;;;;;;;65.57;21.63;;;;;;;4.97;100.00;101596.38;5003337;28;20200;-43
2024/01/26 05:36:39;;;;;;;74.65;22.73;;;;;;;5.00;100.00;101620.25;4988064;28;20504;-42
2024/01/26 05:39:05;;;;;;;67.53;21.58;;;;;;;5.01;100.00;101611.38;4984786;28;20185;-44
2024/01/26 05:41:30;;;;;;;70.72;21.50;;;;;;;5.00;100.00;101597.22;4998698;28;20718;-39
2024/01/26 05:43:55;;;;;;;59.92;21.55;;;;;;;5.03;100.00;101588.38;5005383;28;20216;-41
2024/01/26 05:46:21;;;;;;;79.05;21.98;;;;;;;5.05;100.00;101586.59;4986072;28;20237;-41
2024/01/26 05:48:46;;;;;;;66.10;20.88;;;;;;;5.08;100.00;101584.81;5002378;28;20807;-44
2024/01/26 05:51:13;;;;;;;65.75;21.75;;;;;;;5.09;100.00;101564.44;4987238;28;20652;-43
2024/01/26 05:53:38;;;;;;;70.97;23.23;;;;;;;5.10;100.00;101555.63;5003313;28;20184;-43
2024/01/26 05:56:04;;;;;;;80.47;20.52;;;;;;;5.12;100.00;101535.25;4984032;28;20621;-41
2024/01/26 05:58:31;;;;;;;69.07;20.75;;;;;;;5.14;100.00;101554.72;5001331;28;20216;-43
2024/01/26 06:00:57;;;;;;;58.65;21.13;;;;;;;5.16;100.00;101558.25;4999113;28;20193;-42
2024/01/26 06:03:22;;;;;;;60.72;20.90;;;;;;;5.15;100.00;101548.50;5000966;28;20182;-43
2024/01/26 06:05:48;;;;;;;73.93;21.20;;;;;;;5.18;100.00;101544.94;4990747;28;20727;-43
2024/01/26 06:08:13;;;;;;;57.63;20.55;;;;;;;5.18;100.00;101545.81;5002880;28;20193;-41
2024/01/26 06:10:39;;;;;;;65.50;21.70;;;;;;;5.23;100.00;101551.13;5004190;28;20218;-43
2024/01/26 06:13:05;;;;;;;73.25;22.83;;;;;;;5.28;100.00;101541.34;5005601;28;20178;-42
2024/01/26 06:15:30;;;;;;;65.80;21.75;;;;;;;5.32;100.00;101529.81;5003423;28;20201;-43
2024/01/26 06:17:56;;;;;;;68.53;21.63;;;;;;;5.34;100.00;101515.63;5003298;28;20208;-42
2024/01/26 06:20:21;;;;;;;72.43;21.65;;;;;;;5.39;100.00;101507.63;5005329;28;20212;-44
2024/01/26 06:22:47;;;;;;;71.10;21.83;;;;;;;5.41;100.00;101502.31;5008019;28;20193;-42
2024/01/26 06:25:12;;;;;;;72.97;21.00;;;;;;;5.46;100.00;101489.88;5004772;28;20268;-41
2024/01/26 06:27:38;;;;;;;67.22;22.27;;;;;;;5.43;100.00;101485.47;5007355;28;20177;-43
2024/01/26 06:30:04;;;;;;;70.40;20.65;;;;;;;5.46;100.00;101503.16;5001371;28;20336;-43
2024/01/26 06:32:30;;;;;;;76.47;22.85;;;;;;;5.47;100.00;101499.63;5006872;28;20203;-43
2024/01/26 06:34:55;;;;;;;65.47;20.77;;;;;;;5.53;100.00;101486.28;5003855;28;20581;-42
2024/01/26 06:37:21;;;;;;;74.93;22.45;;;;;;;5.49;100.00;101480.13;5005005;28;21101;-42
2024/01/26 06:39:46;;;;;;;85.05;24.20;;;;;;;5.52;100.00;101461.47;5028565;28;20194;-39
2024/01/26 06:42:12;;;;;;;83.82;22.63;;;;;;;5.55;100.00;101485.41;5034836;28;20195;-41
2024/01/26 06:44:38;;;;;;;67.38;21.92;;;;;;;5.57;100.00;101478.28;5032888;28;20207;-41
2024/01/26 06:47:03;;;;;;;77.47;22.23;;;;;;;5.56;100.00;101465.00;5014797;28;20693;-41
2024/01/26 06:49:29;;;;;;;71.05;21.83;;;;;;;5.62;100.00;101464.06;5017507;28;20185;-40
2024/01/26 06:51:54;;;;;;;78.97;22.85;;;;;;;5.60;100.00;101456.13;5034699;28;20446;-42
2024/01/26 06:54:20;;;;;;;75.00;23.58;;;;;;;5.64;100.00;101454.31;5034434;28;20593;-42
2024/01/26 06:56:45;;;;;;;82.32;23.27;;;;;;;5.66;100.00;101439.22;5029331;28;20212;-38
2024/01/26 06:59:11;;;;;;;72.70;22.95;;;;;;;5.70;100.00;101427.66;5023011;28;20188;-41
2024/01/26 07:01:36;;;;;;;79.00;23.75;;;;;;;5.69;100.00;101409.97;5022770;28;20188;-41
2024/01/26 07:04:02;;;;;;;68.55;24.05;;;;;;;5.70;100.00;101404.63;5014486;28;20256;-38
2024/01/26 07:06:27;;;;;;;77.95;23.85;;;;;;;5.72;100.00;101409.94;5014269;28;20360;-43
2024/01/26 07:08:53;;;;;;;68.85;23.85;;;;;;;5.72;100.00;101417.91;5014720;28;20158;-42
2024/01/26 07:11:20;;;;;;;77.50;23.17;;;;;;;5.76;100.00;101398.38;5014413;28;20180;-41
2024/01/26 07:13:46;;;;;;;82.55;23.38;;;;;;;5.81;100.00;101401.00;5014803;28;20259;-40
2024/01/26 07:16:11;;;;;;;69.40;23.45;;;;;;;5.83;100.00;101401.84;5008805;28;20383;-40
2024/01/26 07:18:37;;;;;;;77.97;24.83;;;;;;;5.82;100.00;101405.44;5009348;28;20205;-40
2024/01/26 07:21:08;;;;;;;69.53;23.92;;;;;;;5.85;100.00;101389.44;5014256;28;20180;-39
2024/01/26 07:23:34;;;;;;;80.18;25.08;;;;;;;5.90;100.00;101396.47;4996723;28;20220;-41
2024/01/26 07:26:00;;;;;;;85.78;23.42;;;;;;;5.90;100.00;101383.19;5014034;28;20255;-44
2024/01/26 07:28:26;;;;;;;80.40;24.63;;;;;;;5.92;100.00;101377.84;5004499;28;20181;-43
2024/01/26 07:30:52;;;;;;;69.35;24.73;;;;;;;5.96;100.00;101353.88;5000631;28;20235;-40
2024/01/26 07:33:17;;;;;;;75.75;25.33;;;;;;;5.97;100.00;101360.09;5020500;28;20239;-42
2024/01/26 07:35:42;;;;;;;82.85;26.00;;;;;;;6.01;100.00;101350.28;4996564;28;20204;-40
2024/01/26 07:38:09;;;;;;;78.60;27.00;;;;;;;6.06;100.00;101343.16;5014533;28;20303;-43
2024/01/26 07:40:34;;;;;;;81.00;25.52;;;;;;;6.09;100.00;101343.97;5016755;28;20191;-41
2024/01/26 07:43:00;;;;;;;84.15;28.65;;;;;;;6.12;100.00;101340.41;5024913;28;20184;-39
2024/01/26 07:45:25;;;;;;;77.57;25.60;;;;;;;6.14;100.00;101335.94;5021486;28;20641;-39
2024/01/26 07:47:52;;;;;;;79.93;26.85;;;;;;;6.18;100.00;101316.38;5013563;28;20654;-40
2024/01/26 07:50:17;;;;;;;68.22;25.77;;;;;;;6.21;100.00;101304.81;5013698;28;20565;-43
2024/01/26 07:52:43;;;;;;;72.40;23.83;;;;;;;6.24;100.00;101300.34;5017393;28;20196;-43
2024/01/26 07:55:09;;;;;;;65.63;24.95;;;;;;;6.26;100.00;101290.56;5025386;28;20185;-41
2024/01/26 07:57:37;;;;;;;69.07;25.55;;;;;;;6.29;100.00;101276.34;5013378;28;20252;-43
2024/01/26 08:00:08;;;;;;;63.55;22.92;;;;;;;6.31;100.00;101285.19;5013260;28;20181;-40
2024/01/26 08:02:35;;;;;;;69.80;23.65;;;;;;;6.32;100.00;101271.88;5026984;28;20247;-43
2024/01/26 08:05:00;;;;;;;58.80;24.30;;;;;;;6.34;100.00;101253.19;4993726;28;20252;-42
2024/01/26 08:07:26;;;;;;;69.72;24.70;;;;;;;6.35;100.00;101258.50;5011290;28;20208;-44
2024/01/26 08:09:52;;;;;;;64.53;23.77;;;;;;;6.34;100.00;101247.88;5013064;28;20176;-43
2024/01/26 08:12:17;;;;;;;68.88;23.80;;;;;;;6.33;100.00;101249.66;5012529;28;20173;-41
2024/01/26 08:14:43;;;;;;;65.95;24.45;;;;;;;6.34;100.00;101239.91;5005148;28;20188;-45
2024/01/26 08:17:08;;;;;;;72.57;24.13;;;;;;;6.38;100.00;101239.84;5012828;28;20213;-41
2024/01/26 08:19:35;;;;;;;60.97;24.50;;;;;;;6.40;100.00;101226.50;5013137;28;20189;-40
2024/01/26 08:22:01;;;;;;;67.57;25.55;;;;;;;6.40;100.00;101221.19;5008088;28;20193;-39
2024/01/26 08:24:26;;;;;;;69.38;27.65;;;;;;;6.44;100.00;101219.38;5002568;28;20189;-39
2024/01/26 08:26:52;;;;;;;70.45;27.15;;;;;;;6.46;100.00;101223.75;5012948;28;20207;-41
2024/01/26 08:29:21;;;;;;;71.63;25.92;;;;;;;6.50;100.00;101221.94;5021058;28;20246;-42
2024/01/26 08:31:47;;;;;;;61.75;24.13;;;;;;;6.55;100.00;101212.09;5021817;28;20188;-44
2024/01/26 08:34:13;;;;;;;64.88;25.73;;;;;;;6.56;100.00;101206.75;5020015;28;20191;-41
2024/01/26 08:36:38;;;;;;;62.00;25.25;;;;;;;6.59;100.00;101193.38;5022269;28;20196;-41
2024/01/26 08:39:04;;;;;;;64.45;25.90;;;;;;;6.59;100.00;101201.38;4994916;28;20654;-40
2024/01/26 08:41:29;;;;;;;64.82;24.45;;;;;;;6.66;100.00;101198.63;5012392;28;20659;-41
2024/01/26 08:43:55;;;;;;;60.65;24.27;;;;;;;6.66;100.00;101195.94;5025876;28;20184;-41
2024/01/26 08:46:21;;;;;;;59.33;24.45;;;;;;;6.67;100.00;101189.72;5031732;28;20204;-45
2024/01/26 08:48:46;;;;;;;56.72;22.20;;;;;;;6.69;100.00;101186.16;5020689;28;20263;-39
2024/01/26 08:51:12;;;;;;;54.75;21.23;;;;;;;6.70;100.00;101193.22;4996619;28;20181;-41
2024/01/26 08:53:37;;;;;;;57.97;21.05;;;;;;;6.69;100.00;101183.47;4987458;28;20790;-41
2024/01/26 08:56:05;;;;;;;46.40;19.38;;;;;;;6.73;100.00;101168.31;5020381;28;20643;-44
2024/01/26 08:58:30;;;;;;;49.90;18.85;;;;;;;6.75;100.00;101175.38;5019679;28;20752;-41
2024/01/26 09:00:56;;;;;;;49.13;19.77;;;;;;;6.76;100.00;101152.31;5025565;28;20184;-43
2024/01/26 09:03:21;;;;;;;50.47;20.10;;;;;;;6.78;100.00;101130.06;5013866;28;20176;-41
2024/01/26 09:05:47;;;;;;;37.28;16.70;;;;;;;6.80;100.00;101130.03;5012308;28;20638;-42
2024/01/26 09:08:12;;;;;;;40.70;16.73;;;;;;;6.86;100.00;101124.56;5012451;28;20581;-40
2024/01/26 09:10:38;;;;;;;36.75;16.90;;;;;;;6.87;100.00;101130.81;5012020;28;20189;-39
2024/01/26 09:13:03;;;;;;;39.70;16.75;;;;;;;6.93;100.00;101110.25;5006727;28;20550;-42
2024/01/26 09:15:29;;;;;;;36.83;15.35;;;;;;;6.95;100.00;101119.09;5026320;28;20214;-41
2024/01/26 09:17:55;;;;;;;40.53;15.30;;;;;;;6.98;100.00;101107.50;5018751;28;20201;-41
2024/01/26 09:20:20;;;;;;;32.28;14.88;;;;;;;7.04;100.00;101095.84;5014172;28;20639;-41
2024/01/26 09:22:46;;;;;;;36.03;14.48;;;;;;;7.05;100.00;101079.84;5015863;28;20180;-40
2024/01/26 09:25:11;;;;;;;32.65;13.77;;;;;;;7.05;100.00;101087.81;5023229;28;20208;-40
2024/01/26 09:27:37;;;;;;;31.77;14.00;;;;;;;7.12;100.00;101077.94;5008209;28;20196;-41
2024/01/26 09:30:03;;;;;;;32.92;13.73;;;;;;;7.19;100.00;101067.13;5005481;28;20234;-42
2024/01/26 09:32:29;;;;;;;24.65;12.77;;;;;;;7.25;100.00;101052.78;5014053;28;20264;-41
2024/01/26 09:34:55;;;;;;;29.25;12.25;;;;;;;7.25;100.00;101070.56;5002387;28;20260;-41
2024/01/26 09:37:20;;;;;;;28.38;13.30;;;;;;;7.26;100.00;101061.66;5011217;28;20220;-40
2024/01/26 09:39:46;;;;;;;28.23;12.77;;;;;;;7.27;100.00;101058.09;5011419;28;20185;-40
2024/01/26 09:42:11;;;;;;;21.10;11.18;;;;;;;7.31;100.00;101047.31;5008075;28;20196;-42
2024/01/26 09:44:37;;;;;;;20.58;10.38;;;;;;;7.36;100.00;101041.91;5018053;28;20468;-41
2024/01/26 09:47:07;;;;;;;26.08;11.68;;;;;;;7.41;100.00;101037.31;5005148;28;20673;-40
2024/01/26 09:49:32;;;;;;;20.80;11.45;;;;;;;7.46;100.00;101050.59;5003264;28;20199;-39
2024/01/26 09:51:59;;;;;;;22.08;10.35;;;;;;;7.48;100.00;101019.41;4986722;28;20192;-41
2024/01/26 09:54:24;;;;;;;20.92;10.82;;;;;;;7.50;100.00;101023.81;5005117;28;20200;-41
2024/01/26 09:56:51;;;;;;;24.65;11.30;;;;;;;7.53;100.00;101023.75;5013728;28;20292;-42
2024/01/26 09:59:16;;;;;;;24.90;11.55;;;;;;;7.55;100.00;101018.38;5001392;28;20828;-43
2024/01/26 10:01:45;;;;;;;20.83;10.95;;;;;;;7.66;100.00;101027.00;5000805;28;20188;-42
2024/01/26 10:04:11;;;;;;;22.95;10.68;;;;;;;7.64;100.00;101016.38;5000260;28;20198;-43
2024/01/26 10:06:37;;;;;;;21.30;10.13;;;;;;;7.80;100.00;101011.53;4999501;28;20703;-44
2024/01/26 10:09:04;;;;;;;19.63;10.48;;;;;;;7.83;100.00;100995.50;4998598;28;20188;-42
2024/01/26 10:11:31;;;;;;;19.73;9.48;;;;;;;7.88;100.00;100999.84;4999772;28;20220;-42
2024/01/26 10:13:56;;;;;;;19.58;9.80;;;;;;;7.89;100.00;101004.25;5000986;28;20184;-42
2024/01/26 10:16:22;;;;;;;20.42;9.63;;;;;;;7.89;100.00;101005.09;4987280;28;20616;-47
2024/01/26 10:18:48;;;;;;;16.17;8.95;;;;;;;7.96;100.00;100997.84;5001405;28;20184;-45
2024/01/26 10:21:16;;;;;;;19.60;8.55;;;;;;;8.06;100.00;100999.38;4997056;28;20181;-44
2024/01/26 10:23:42;;;;;;;15.18;8.32;;;;;;;8.07;100.00;100997.56;5003787;28;20181;-45
2024/01/26 10:26:10;;;;;;;14.80;7.15;;;;;;;8.06;100.00;101002.03;5001747;28;20575;-47
2024/01/26 10:28:36;;;;;;;14.50;7.60;;;;;;;8.08;100.00;100978.84;5000420;28;20235;-46
2024/01/26 10:31:02;;;;;;;10.07;6.72;;;;;;;8.16;100.00;100992.03;4999788;28;20173;-45
2024/01/26 10:33:31;;;;;;;10.93;6.45;;;;;;;8.19;100.00;100983.94;5002867;28;20200;-44
2024/01/26 10:35:59;;;;;;;10.73;6.32;;;;;;;8.20;100.00;100983.03;4988175;28;20208;-45
2024/01/26 10:38:25;;;;;;;9.27;6.18;;;;;;;8.18;100.00;100988.38;5000728;28;20204;-46
2024/01/26 10:41:00;;;;;;;10.18;5.93;;;;;;;8.23;100.00;100975.78;4978739;28;20173;-44
2024/01/26 10:43:26;;;;;;;12.45;7.05;;;;;;;8.27;100.00;100968.59;4999170;28;20267;-45
2024/01/26 10:45:53;;;;;;;11.55;6.07;;;;;;;8.32;100.00;100963.13;5002166;28;20223;-46
2024/01/26 10:48:19;;;;;;;9.73;6.40;;;;;;;8.27;100.00;100955.25;5001185;28;20189;-45
2024/01/26 10:50:46;;;;;;;10.15;6.15;;;;;;;8.35;100.00;100952.34;5000216;28;20200;-46
2024/01/26 10:53:13;;;;;;;7.35;5.78;;;;;;;8.39;100.00;100933.53;5006988;28;20184;-45
2024/01/26 10:55:40;;;;;;;10.70;6.05;;;;;;;8.45;100.00;100938.75;5002963;28;20208;-44
2024/01/26 10:58:07;;;;;;;7.55;5.88;;;;;;;8.41;100.00;100934.41;5004686;28;20205;-45
2024/01/26 11:00:33;;;;;;;12.70;5.75;;;;;;;8.44;100.00;100928.13;5004739;28;20185;-44
2024/01/26 11:02:59;;;;;;;8.32;5.88;;;;;;;8.42;100.00;100936.19;4995714;28;20232;-46
2024/01/26 11:05:25;;;;;;;8.82;5.95;;;;;;;8.47;100.00;100929.84;5005430;28;20231;-46